createdAt,value
2023-03-06T00:02:12.923Z,10.03
2023-03-06T00:04:39.936Z,10.47
2023-03-06T00:07:06.248Z,10.30
2023-03-06T00:09:32.496Z,10.00
2023-03-06T00:11:58.809Z,10.30
2023-03-06T00:14:25.095Z,11.20
2023-03-06T00:16:54.542Z,10.87
2023-03-06T00:19:20.809Z,10.50
2023-03-06T00:21:47.069Z,10.67
2023-03-06T00:24:13.341Z,10.50
2023-03-06T00:26:41.177Z,10.67
2023-03-06T00:29:08.675Z,10.30
2023-03-06T00:31:35.890Z,10.63
2023-03-06T00:34:02.733Z,10.43
2023-03-06T00:36:28.972Z,10.20
2023-03-06T00:38:55.222Z,10.00
2023-03-06T00:41:21.528Z,10.50
2023-03-06T00:43:47.828Z,10.03
2023-03-06T00:46:14.299Z,10.10
2023-03-06T00:48:40.554Z,10.73
2023-03-06T00:51:07.177Z,10.53
2023-03-06T00:53:33.464Z,10.80
2023-03-06T00:55:59.762Z,10.90
2023-03-06T00:58:25.998Z,10.87
2023-03-06T01:00:53.123Z,10.80
2023-03-06T01:03:19.398Z,10.10
2023-03-06T01:05:45.671Z,11.07
2023-03-06T01:08:11.976Z,10.80
2023-03-06T01:10:38.744Z,10.57
2023-03-06T01:13:05.073Z,10.93
2023-03-06T01:15:31.345Z,10.20
2023-03-06T01:17:57.622Z,10.37
2023-03-06T01:20:23.951Z,10.53
2023-03-06T01:22:50.301Z,10.47
2023-03-06T01:25:16.604Z,10.90
2023-03-06T01:27:42.900Z,9.73
2023-03-06T01:30:09.448Z,10.67
2023-03-06T01:32:35.755Z,9.93
2023-03-06T01:35:03.863Z,10.33
2023-03-06T01:37:30.308Z,10.60
2023-03-06T01:39:56.580Z,9.77
2023-03-06T01:42:22.846Z,10.37
2023-03-06T01:44:59.087Z,10.63
2023-03-06T01:47:25.389Z,9.97
2023-03-06T01:49:53.325Z,10.37
2023-03-06T01:52:22.032Z,9.60
2023-03-06T01:54:50.525Z,10.57
2023-03-06T01:57:19.578Z,9.50
2023-03-06T01:59:47.834Z,10.47
2023-03-06T02:02:15.157Z,10.03
2023-03-06T02:04:42.966Z,9.87
2023-03-06T02:07:09.870Z,9.77
2023-03-06T02:09:37.220Z,10.17
2023-03-06T02:12:07.762Z,9.60
2023-03-06T02:14:34.135Z,9.67
2023-03-06T02:17:00.434Z,9.07
2023-03-06T02:19:26.708Z,10.10
2023-03-06T02:21:53.042Z,9.50
2023-03-06T02:24:19.916Z,10.50
2023-03-06T02:26:46.796Z,10.27
2023-03-06T02:29:14.486Z,10.30
2023-03-06T02:31:40.774Z,9.80
2023-03-06T02:34:26.994Z,9.90
2023-03-06T02:36:55.597Z,10.20
2023-03-06T02:39:23.239Z,10.67
2023-03-06T02:41:49.609Z,11.20
2023-03-06T02:44:15.917Z,10.80
2023-03-06T02:46:42.258Z,11.43
2023-03-06T02:49:08.493Z,11.10
2023-03-06T02:51:34.815Z,12.03
2023-03-06T02:54:01.111Z,11.67
2023-03-06T02:56:27.368Z,11.27
2023-03-06T02:58:53.862Z,11.27
2023-03-06T03:01:20.466Z,10.60
2023-03-06T03:03:46.723Z,11.03
2023-03-06T03:06:13.214Z,11.53
2023-03-06T03:08:39.563Z,11.10
2023-03-06T03:11:06.140Z,12.13
2023-03-06T03:13:32.428Z,12.23
2023-03-06T03:16:03.035Z,11.37
2023-03-06T03:18:29.620Z,12.17
2023-03-06T03:20:56.020Z,10.97
2023-03-06T03:23:22.755Z,11.60
2023-03-06T03:25:49.047Z,11.80
2023-03-06T03:28:15.587Z,26.17
2023-03-06T03:30:42.388Z,13.10
2023-03-06T03:33:09.132Z,12.43
2023-03-06T03:35:35.685Z,13.17
2023-03-06T03:38:02.110Z,12.67
2023-03-06T03:40:28.595Z,13.13
2023-03-06T03:42:54.878Z,13.07
2023-03-06T03:45:21.165Z,12.70
2023-03-06T03:47:47.401Z,12.07
2023-03-06T03:50:13.851Z,12.27
2023-03-06T03:52:40.126Z,12.83
2023-03-06T03:55:06.680Z,13.43
2023-03-06T03:57:33.032Z,12.70
2023-03-06T03:59:59.475Z,23.30
2023-03-06T04:02:25.738Z,14.63
2023-03-06T04:04:52.230Z,12.97
2023-03-06T04:07:18.533Z,13.77
2023-03-06T04:09:44.838Z,13.87
2023-03-06T04:12:11.170Z,14.23
2023-03-06T04:14:37.461Z,14.73
2023-03-06T04:17:03.740Z,14.23
2023-03-06T04:19:29.998Z,14.40
2023-03-06T04:21:56.316Z,13.97
2023-03-06T04:24:22.593Z,14.10
2023-03-06T04:26:48.852Z,14.10
2023-03-06T04:29:15.295Z,14.27
2023-03-06T04:31:41.758Z,13.70
2023-03-06T04:34:08.033Z,14.70
2023-03-06T04:36:34.838Z,13.67
2023-03-06T04:39:01.571Z,15.23
2023-03-06T04:41:27.913Z,14.73
2023-03-06T04:43:54.390Z,14.10
2023-03-06T04:46:20.724Z,14.47
2023-03-06T04:48:47.236Z,14.10
2023-03-06T04:51:13.682Z,14.77
2023-03-06T04:53:40.018Z,15.07
2023-03-06T04:56:06.749Z,15.23
2023-03-06T04:58:33.042Z,13.83
2023-03-06T05:00:59.373Z,15.47
2023-03-06T05:03:25.645Z,15.80
2023-03-06T05:05:51.986Z,15.60
2023-03-06T05:08:18.360Z,15.30
2023-03-06T05:10:45.146Z,15.97
2023-03-06T05:13:11.787Z,16.33
2023-03-06T05:15:41.945Z,15.87
2023-03-06T05:18:08.230Z,15.83
2023-03-06T05:20:34.613Z,16.27
2023-03-06T05:23:00.892Z,16.13
2023-03-06T05:25:27.154Z,16.63
2023-03-06T05:27:53.421Z,16.80
2023-03-06T05:30:21.184Z,16.23
2023-03-06T05:32:47.487Z,17.13
2023-03-06T05:35:21.407Z,16.63
2023-03-06T05:37:47.977Z,17.23
2023-03-06T05:40:15.066Z,16.80
2023-03-06T05:42:41.810Z,16.87
2023-03-06T05:45:08.391Z,17.13
2023-03-06T05:47:34.667Z,16.87
2023-03-06T05:50:00.961Z,16.27
2023-03-06T05:52:27.294Z,17.13
2023-03-06T05:54:54.050Z,17.87
2023-03-06T05:57:21.630Z,17.13
2023-03-06T05:59:48.580Z,16.50
2023-03-06T06:02:15.382Z,17.53
2023-03-06T06:04:42.453Z,18.00
2023-03-06T06:07:12.488Z,16.90
2023-03-06T06:09:38.855Z,17.57
2023-03-06T06:12:05.496Z,20.30
2023-03-06T06:14:33.708Z,17.13
2023-03-06T06:16:59.968Z,17.03
2023-03-06T06:19:28.675Z,17.43
2023-03-06T06:21:54.970Z,17.17
2023-03-06T06:24:23.402Z,17.77
2023-03-06T06:26:50.579Z,17.17
2023-03-06T06:29:16.832Z,18.37
2023-03-06T06:31:43.223Z,17.43
2023-03-06T06:34:10.510Z,17.70
2023-03-06T06:36:36.918Z,18.23
2023-03-06T06:39:03.551Z,19.17
2023-03-06T06:41:51.032Z,17.77
2023-03-06T06:44:17.783Z,19.33
2023-03-06T06:49:31.869Z,17.77
2023-03-06T06:51:58.570Z,18.10
2023-03-06T06:54:24.891Z,18.87
2023-03-06T06:56:51.318Z,18.30
2023-03-06T06:59:17.738Z,18.53
2023-03-06T07:01:44.235Z,18.20
2023-03-06T07:04:13.824Z,20.10
2023-03-06T07:06:40.505Z,20.07
2023-03-06T07:09:06.762Z,18.03
2023-03-06T07:11:33.066Z,18.63
2023-03-06T07:13:59.367Z,19.30
2023-03-06T07:16:25.664Z,18.63
2023-03-06T07:18:52.000Z,19.07
2023-03-06T07:21:18.252Z,19.63
2023-03-06T07:23:44.588Z,18.77
2023-03-06T07:26:11.204Z,18.53
2023-03-06T07:28:51.290Z,24.43
2023-03-06T07:31:18.985Z,19.17
2023-03-06T07:33:45.360Z,20.13
2023-03-06T07:36:12.932Z,19.70
2023-03-06T07:38:40.240Z,20.10
2023-03-06T07:41:09.526Z,18.77
2023-03-06T07:43:35.889Z,21.20
2023-03-06T07:46:02.224Z,19.80
2023-03-06T07:48:28.483Z,25.10
2023-03-06T07:50:57.799Z,21.50
2023-03-06T07:53:24.691Z,19.93
2023-03-06T07:55:50.939Z,20.87
2023-03-06T07:58:17.208Z,23.97
2023-03-06T08:00:43.472Z,20.53
2023-03-06T08:03:11.186Z,19.70
2023-03-06T08:05:37.601Z,21.07
2023-03-06T08:08:03.981Z,21.57
2023-03-06T08:10:30.228Z,20.30
2023-03-06T08:12:56.512Z,21.00
2023-03-06T08:15:22.776Z,21.03
2023-03-06T08:17:49.436Z,20.67
2023-03-06T08:20:17.475Z,20.43
2023-03-06T08:22:44.073Z,20.20
2023-03-06T08:25:11.480Z,19.83
2023-03-06T08:27:37.826Z,20.87
2023-03-06T08:30:04.389Z,19.90
2023-03-06T08:32:30.658Z,19.43
2023-03-06T08:34:56.963Z,20.40
2023-03-06T08:37:23.228Z,20.77
2023-03-06T08:39:49.549Z,19.13
2023-03-06T08:42:15.955Z,19.60
2023-03-06T08:44:42.704Z,19.13
2023-03-06T08:47:08.969Z,19.63
2023-03-06T08:49:35.946Z,18.77
2023-03-06T08:52:02.272Z,18.33
2023-03-06T08:54:28.518Z,18.83
2023-03-06T08:56:54.832Z,19.00
2023-03-06T08:59:21.147Z,19.37
2023-03-06T09:01:47.418Z,17.40
2023-03-06T09:04:13.922Z,17.03
2023-03-06T09:06:41.817Z,18.07
2023-03-06T09:09:08.389Z,17.43
2023-03-06T09:11:34.871Z,17.47
2023-03-06T09:14:01.255Z,17.43
2023-03-06T09:16:27.768Z,18.20
2023-03-06T09:18:54.273Z,18.07
2023-03-06T09:21:21.682Z,18.17
2023-03-06T09:23:48.158Z,17.30
2023-03-06T09:26:14.432Z,17.87
2023-03-06T09:28:40.941Z,17.57
2023-03-06T09:31:17.701Z,17.40
2023-03-06T09:33:44.289Z,18.40
2023-03-06T09:36:14.885Z,17.00
2023-03-06T09:38:41.217Z,15.77
2023-03-06T09:41:12.139Z,16.77
2023-03-06T09:43:39.953Z,17.63
2023-03-06T09:46:07.460Z,16.77
2023-03-06T09:48:43.679Z,17.07
2023-03-06T09:51:12.622Z,17.00
2023-03-06T09:53:50.838Z,17.00
2023-03-06T09:56:21.892Z,16.47
2023-03-06T09:58:57.160Z,17.87
2023-03-06T10:01:23.414Z,16.57
2023-03-06T10:11:03.683Z,15.33
2023-03-06T10:13:38.090Z,16.97
2023-03-06T10:16:22.099Z,16.17
2023-03-06T10:18:48.378Z,16.23
2023-03-06T10:21:24.178Z,15.87
2023-03-06T10:23:55.032Z,16.77
2023-03-06T10:26:24.481Z,16.10
2023-03-06T10:29:09.495Z,15.60
2023-03-06T10:31:37.309Z,15.77
2023-03-06T10:34:21.850Z,15.27
2023-03-06T10:36:48.330Z,15.67
2023-03-06T10:39:15.861Z,15.77
2023-03-06T10:41:42.972Z,15.53
2023-03-06T10:44:17.686Z,15.30
2023-03-06T10:46:45.744Z,14.93
2023-03-06T10:49:29.987Z,14.93
2023-03-06T10:52:00.665Z,14.40
2023-03-06T10:54:28.507Z,16.73
2023-03-06T10:56:54.779Z,20.27
2023-03-06T10:59:26.526Z,18.93
2023-03-06T11:01:54.501Z,31.33
2023-03-06T11:04:21.339Z,32.60
2023-03-06T11:06:47.775Z,16.13
2023-03-06T11:09:24.144Z,15.13
2023-03-06T11:11:51.112Z,15.73
2023-03-06T11:14:18.470Z,15.87
2023-03-06T11:16:53.029Z,14.83
2023-03-06T11:19:26.447Z,16.63
2023-03-06T11:22:03.225Z,16.57
2023-03-06T11:24:37.401Z,17.03
2023-03-06T11:27:15.054Z,14.87
2023-03-06T11:29:51.513Z,15.23
2023-03-06T11:32:23.129Z,14.93
2023-03-06T11:34:53.543Z,13.83
2023-03-06T11:37:19.762Z,14.97
2023-03-06T11:39:55.972Z,14.53
2023-03-06T11:42:26.450Z,14.77
2023-03-06T11:45:18.642Z,13.83
2023-03-06T11:48:03.626Z,14.77
2023-03-06T11:50:37.814Z,14.93
2023-03-06T11:53:06.132Z,15.53
2023-03-06T11:55:44.666Z,14.73
2023-03-06T11:58:29.408Z,14.53
2023-03-06T12:01:14.440Z,13.93
2023-03-06T12:03:40.929Z,14.27
2023-03-06T12:06:15.374Z,14.57
2023-03-06T12:08:47.514Z,13.33
2023-03-06T12:11:22.936Z,14.13
2023-03-06T12:13:55.506Z,13.83
2023-03-06T12:16:29.725Z,14.97
2023-03-06T12:19:04.966Z,13.57
2023-03-06T12:21:41.779Z,14.00
2023-03-06T12:24:19.426Z,26.63
2023-03-06T12:27:15.071Z,17.80
2023-03-06T12:29:50.261Z,35.07
2023-03-06T12:32:17.643Z,17.60
2023-03-06T12:34:51.169Z,14.20
2023-03-06T12:37:20.489Z,14.67
2023-03-06T12:40:13.653Z,14.20
2023-03-06T12:42:50.781Z,13.83
2023-03-06T12:45:20.206Z,14.37
2023-03-06T12:47:47.287Z,13.17
2023-03-06T12:50:23.456Z,14.60
2023-03-06T12:52:50.032Z,14.80
2023-03-06T12:55:18.545Z,14.10
2023-03-06T12:57:48.667Z,12.80
2023-03-06T13:00:34.047Z,12.60
2023-03-06T13:03:06.354Z,12.73
2023-03-06T13:05:38.504Z,13.23
2023-03-06T13:08:23.326Z,12.93
2023-03-06T13:11:05.576Z,13.83
2023-03-06T13:13:33.336Z,12.97
2023-03-06T13:16:12.082Z,12.80
2023-03-06T13:18:38.374Z,13.23
2023-03-06T13:21:05.739Z,12.17
2023-03-06T13:23:31.955Z,12.60
2023-03-06T13:26:21.581Z,13.13
2023-03-06T13:28:50.184Z,14.87
2023-03-06T13:31:36.912Z,13.60
2023-03-06T13:34:23.159Z,14.13
2023-03-06T13:36:49.454Z,14.00
2023-03-06T13:39:15.686Z,15.00
2023-03-06T13:41:55.370Z,13.47
2023-03-06T13:44:24.682Z,13.57
2023-03-06T13:46:58.920Z,13.53
2023-03-06T13:49:25.485Z,13.80
2023-03-06T13:51:51.743Z,12.23
2023-03-06T13:54:21.167Z,11.93
2023-03-06T13:56:50.189Z,13.37
2023-03-06T13:59:27.850Z,12.60
2023-03-06T14:01:54.129Z,12.50
2023-03-06T14:04:27.190Z,12.07
2023-03-06T14:07:13.782Z,11.67
2023-03-06T14:09:44.213Z,12.27
2023-03-06T14:12:13.195Z,12.50
2023-03-06T14:14:42.482Z,11.17
2023-03-06T14:17:18.222Z,10.97
2023-03-06T14:19:44.767Z,11.07
2023-03-06T14:22:18.706Z,11.70
2023-03-06T14:24:52.252Z,11.27
2023-03-06T14:27:19.171Z,11.87
2023-03-06T14:29:48.477Z,11.63
2023-03-06T14:32:16.619Z,11.50
2023-03-06T14:34:48.553Z,11.67
2023-03-06T14:37:22.758Z,11.50
2023-03-06T14:39:49.258Z,11.87
2023-03-06T14:42:19.811Z,10.90
2023-03-06T14:44:46.821Z,11.90
2023-03-06T14:47:22.210Z,10.40
2023-03-06T14:49:48.593Z,10.83
2023-03-06T14:52:19.050Z,12.70
2023-03-06T14:54:45.895Z,12.07
2023-03-06T14:57:13.652Z,12.40
2023-03-06T14:59:45.443Z,11.27
2023-03-06T15:02:16.292Z,12.87
2023-03-06T15:04:47.553Z,11.63
2023-03-06T15:07:15.926Z,11.63
2023-03-06T15:10:00.791Z,12.00
2023-03-06T15:12:27.151Z,11.03
2023-03-06T15:15:01.601Z,11.00
2023-03-06T15:17:28.052Z,11.43
2023-03-06T15:19:55.953Z,11.83
2023-03-06T15:22:25.144Z,12.87
2023-03-06T15:24:51.807Z,11.70
2023-03-06T15:27:19.854Z,13.07
2023-03-06T15:29:46.225Z,13.13
2023-03-06T15:32:31.112Z,11.10
2023-03-06T15:35:15.959Z,12.07
2023-03-06T15:37:42.333Z,11.50
2023-03-06T15:40:17.617Z,11.67
2023-03-06T15:42:44.196Z,11.20
2023-03-06T15:45:19.439Z,12.10
2023-03-06T15:47:46.599Z,13.93
2023-03-06T15:50:14.412Z,13.37
2023-03-06T15:52:40.666Z,13.43
2023-03-06T15:55:07.039Z,13.63
2023-03-06T15:57:33.410Z,12.67
2023-03-06T16:00:00.381Z,13.77
2023-03-06T16:02:26.872Z,12.93
2023-03-06T16:04:53.554Z,12.60
2023-03-06T16:07:20.563Z,14.27
2023-03-06T16:09:47.356Z,14.17
2023-03-06T16:12:15.691Z,14.07
2023-03-06T16:14:42.049Z,13.80
2023-03-06T16:17:09.739Z,13.00
2023-03-06T16:19:36.070Z,14.17
2023-03-06T16:22:02.340Z,14.67
2023-03-06T16:24:29.047Z,15.10
2023-03-06T16:26:55.562Z,14.27
2023-03-06T16:29:22.967Z,14.90
2023-03-06T16:31:49.940Z,15.93
2023-03-06T16:34:17.010Z,15.33
2023-03-06T16:36:43.413Z,16.00
2023-03-06T16:39:17.441Z,14.67
2023-03-06T16:41:45.824Z,15.27
2023-03-06T16:44:12.516Z,15.30
2023-03-06T16:46:40.130Z,14.77
2023-03-06T16:49:06.456Z,15.20
2023-03-06T16:51:33.526Z,16.73
2023-03-06T16:53:59.763Z,15.87
2023-03-06T16:56:26.029Z,16.90
2023-03-06T16:58:52.354Z,16.27
2023-03-06T17:01:19.325Z,15.90
2023-03-06T17:03:46.095Z,16.93
2023-03-06T17:06:13.586Z,16.70
2023-03-06T17:08:39.930Z,15.90
2023-03-06T17:11:06.611Z,17.33
2023-03-06T17:13:32.886Z,16.80
2023-03-06T17:16:01.596Z,15.47
2023-03-06T17:18:28.586Z,16.57
2023-03-06T17:20:55.051Z,15.53
2023-03-06T17:23:25.877Z,16.93
2023-03-06T17:26:12.494Z,16.13
2023-03-06T17:28:39.128Z,16.90
2023-03-06T17:31:19.256Z,16.60
2023-03-06T17:33:45.971Z,18.43
2023-03-06T17:36:12.583Z,16.93
2023-03-06T17:38:39.029Z,16.20
2023-03-06T17:41:06.385Z,16.80
2023-03-06T17:43:32.908Z,17.27
2023-03-06T17:46:06.217Z,19.03
2023-03-06T17:48:33.191Z,16.90
2023-03-06T17:50:59.672Z,18.47
2023-03-06T17:53:26.540Z,18.27
2023-03-06T17:55:52.811Z,18.67
2023-03-06T17:58:19.128Z,17.90
2023-03-06T18:00:45.858Z,18.60
2023-03-06T18:03:12.378Z,18.70
2023-03-06T18:05:38.993Z,19.43
2023-03-06T18:08:07.989Z,18.20
2023-03-06T18:10:34.426Z,19.30
2023-03-06T18:13:00.695Z,19.83
2023-03-06T18:15:27.021Z,19.70
2023-03-06T18:17:53.890Z,21.10
2023-03-06T18:20:20.158Z,20.90
2023-03-06T18:22:46.514Z,20.20
2023-03-06T18:25:12.836Z,20.10
2023-03-06T18:27:39.101Z,19.27
2023-03-06T18:30:05.754Z,20.63
2023-03-06T18:32:32.045Z,21.33
2023-03-06T18:34:58.563Z,21.17
2023-03-06T18:37:24.972Z,21.43
2023-03-06T18:39:51.672Z,20.40
2023-03-06T18:42:18.416Z,21.40
2023-03-06T18:44:47.747Z,20.93
2023-03-06T18:47:15.280Z,21.83
2023-03-06T18:49:44.108Z,21.57
2023-03-06T18:52:10.708Z,20.63
2023-03-06T18:54:36.977Z,22.00
2023-03-06T18:57:03.421Z,21.83
2023-03-06T18:59:29.941Z,23.33
2023-03-06T19:01:57.703Z,22.63
2023-03-06T19:04:25.132Z,22.23
2023-03-06T19:06:51.687Z,22.33
2023-03-06T19:09:17.936Z,22.83
2023-03-06T19:11:46.750Z,23.23
2023-03-06T19:14:13.816Z,22.60
2023-03-06T19:16:40.455Z,21.73
2023-03-06T19:19:06.815Z,22.80
2023-03-06T19:21:33.080Z,22.27
2023-03-06T19:23:59.397Z,22.63
2023-03-06T19:26:26.896Z,23.00
2023-03-06T19:28:53.487Z,23.23
2023-03-06T19:31:21.416Z,22.07
2023-03-06T19:33:48.628Z,21.43
2023-03-06T19:36:15.672Z,23.03
2023-03-06T19:38:42.113Z,22.53
2023-03-06T19:41:13.568Z,21.70
2023-03-06T19:43:40.734Z,21.77
2023-03-06T19:46:10.866Z,21.70
2023-03-06T19:48:37.262Z,21.60
2023-03-06T19:51:04.271Z,21.13
2023-03-06T19:53:31.178Z,22.30
2023-03-06T19:56:04.393Z,23.00
2023-03-06T19:58:30.699Z,23.07
2023-03-06T20:01:02.938Z,22.53
2023-03-06T20:03:29.242Z,22.17
2023-03-06T20:05:55.552Z,23.00
2023-03-06T20:08:21.818Z,21.77
2023-03-06T20:10:48.079Z,23.93
2023-03-06T20:13:14.335Z,22.70
2023-03-06T20:15:40.635Z,22.53
2023-03-06T20:18:07.007Z,22.90
2023-03-06T20:20:33.280Z,22.00
2023-03-06T20:23:04.279Z,22.63
2023-03-06T20:25:30.946Z,21.73
2023-03-06T20:27:57.341Z,22.33
2023-03-06T20:30:24.265Z,21.37
2023-03-06T20:32:51.495Z,22.87
2023-03-06T20:35:17.939Z,22.23
2023-03-06T20:37:44.184Z,21.77
2023-03-06T20:40:11.008Z,24.07
2023-03-06T20:42:37.311Z,22.33
2023-03-06T20:45:03.722Z,22.57
2023-03-06T20:47:30.096Z,23.23
2023-03-06T20:49:56.414Z,23.00
2023-03-06T20:52:22.654Z,23.27
2023-03-06T20:54:48.900Z,23.23
2023-03-06T20:57:15.286Z,22.63
2023-03-06T20:59:41.662Z,22.27
2023-03-06T21:02:09.611Z,22.13
2023-03-06T21:04:38.559Z,23.13
2023-03-06T21:07:04.837Z,21.67
2023-03-06T21:09:32.732Z,22.63
2023-03-06T21:11:59.289Z,22.17
2023-03-06T21:14:25.533Z,21.87
2023-03-06T21:16:51.963Z,23.20
2023-03-06T21:19:19.223Z,21.60
2023-03-06T21:21:45.466Z,21.63
2023-03-06T21:24:11.758Z,22.57
2023-03-06T21:26:38.022Z,20.07
2023-03-06T21:29:04.852Z,21.67
2023-03-06T21:31:31.793Z,22.27
2023-03-06T21:33:58.903Z,22.03
2023-03-06T21:36:25.840Z,22.07
2023-03-06T21:38:52.542Z,21.40
2023-03-06T21:41:18.894Z,22.17
2023-03-06T21:43:45.183Z,20.83
2023-03-06T21:46:11.919Z,21.23
2023-03-06T21:48:38.529Z,20.93
2023-03-06T21:51:05.763Z,20.70
2023-03-06T21:53:32.170Z,21.97
2023-03-06T21:56:01.975Z,22.43
2023-03-06T21:58:28.816Z,21.03
2023-03-06T22:00:55.142Z,20.73
2023-03-06T22:03:21.572Z,21.23
2023-03-06T22:05:47.866Z,22.53
2023-03-06T22:08:14.342Z,21.47
2023-03-06T22:10:41.044Z,21.77
2023-03-06T22:13:07.436Z,21.53
2023-03-06T22:15:33.692Z,19.87
2023-03-06T22:17:59.948Z,21.23
2023-03-06T22:20:26.291Z,21.20
2023-03-06T22:22:52.556Z,20.57
2023-03-06T22:25:18.844Z,20.13
2023-03-06T22:27:45.142Z,19.80
2023-03-06T22:30:11.692Z,20.03
2023-03-06T22:32:38.042Z,19.97
2023-03-06T22:35:05.287Z,18.90
2023-03-06T22:37:31.532Z,18.20
2023-03-06T22:39:57.787Z,18.33
2023-03-06T22:42:24.050Z,16.73
2023-03-06T22:44:50.284Z,16.80
2023-03-06T22:47:16.560Z,15.37
2023-03-06T22:49:42.819Z,16.17
2023-03-06T22:52:09.061Z,16.30
2023-03-06T22:54:35.428Z,15.67
2023-03-06T22:57:01.730Z,14.60
2023-03-06T22:59:28.043Z,13.63
2023-03-06T23:01:54.471Z,14.00
2023-03-06T23:04:20.801Z,13.33
2023-03-06T23:06:47.085Z,13.40
2023-03-06T23:09:15.828Z,12.07
2023-03-06T23:11:42.174Z,12.67
2023-03-06T23:14:11.932Z,12.37
2023-03-06T23:16:38.570Z,12.07
2023-03-06T23:19:05.272Z,11.87
2023-03-06T23:21:31.583Z,10.97
2023-03-06T23:23:57.845Z,10.87
2023-03-06T23:26:25.499Z,10.97
2023-03-06T23:28:52.623Z,9.90
2023-03-06T23:31:20.699Z,11.00
2023-03-06T23:33:47.939Z,9.13
2023-03-06T23:36:15.337Z,9.70
2023-03-06T23:38:41.616Z,9.50
2023-03-06T23:41:09.227Z,8.57
2023-03-06T23:43:36.315Z,8.30
2023-03-06T23:46:02.951Z,9.77
2023-03-06T23:48:29.645Z,10.47
2023-03-06T23:50:56.358Z,10.07
2023-03-06T23:53:23.077Z,10.70
2023-03-06T23:55:49.672Z,10.57
2023-03-06T23:58:16.692Z,10.43
